createdAt,value
2023-03-29T00:02:32.392Z,58.15
2023-03-29T00:05:38.800Z,58.42
2023-03-29T00:08:42.441Z,57.80
2023-03-29T00:11:46.089Z,58.41
2023-03-29T00:14:48.801Z,58.07
2023-03-29T00:17:51.843Z,57.90
2023-03-29T00:20:56.548Z,57.96
2023-03-29T00:23:59.349Z,58.09
2023-03-29T00:27:02.685Z,58.29
2023-03-29T00:30:07.882Z,57.80
2023-03-29T00:33:11.866Z,57.09
2023-03-29T00:36:16.068Z,57.33
2023-03-29T00:39:20.609Z,56.33
2023-03-29T00:42:24.827Z,56.24
2023-03-29T00:45:31.649Z,55.96
2023-03-29T00:48:34.687Z,56.91
2023-03-29T00:51:39.580Z,56.51
2023-03-29T00:54:44.872Z,56.59
2023-03-29T00:57:49.332Z,57.19
2023-03-29T01:01:08.786Z,57.16
2023-03-29T01:04:22.363Z,58.26
2023-03-29T01:07:36.049Z,58.75
2023-03-29T01:10:45.559Z,59.54
2023-03-29T01:14:10.678Z,59.47
2023-03-29T01:17:13.512Z,60.24
2023-03-29T01:20:34.443Z,64.30
2023-03-29T01:24:06.851Z,59.74
2023-03-29T01:27:47.467Z,60.78
2023-03-29T01:30:56.266Z,61.58
2023-03-29T01:34:10.083Z,63.53
2023-03-29T01:37:26.594Z,62.83
2023-03-29T01:40:31.116Z,62.78
2023-03-29T01:43:41.128Z,62.75
2023-03-29T01:46:47.475Z,62.96
2023-03-29T01:49:53.331Z,64.66
2023-03-29T01:53:07.794Z,66.10
2023-03-29T01:56:18.027Z,66.34
2023-03-29T01:59:26.327Z,68.13
2023-03-29T02:02:31.883Z,68.66
2023-03-29T02:05:37.139Z,67.25
2023-03-29T02:08:41.759Z,67.47
2023-03-29T02:11:45.439Z,69.48
2023-03-29T02:14:48.343Z,67.58
2023-03-29T02:17:51.465Z,67.89
2023-03-29T02:20:57.495Z,68.36
2023-03-29T02:24:06.363Z,68.88
2023-03-29T02:27:09.254Z,68.11
2023-03-29T02:30:14.574Z,68.98
2023-03-29T02:33:22.156Z,70.51
2023-03-29T02:37:01.296Z,70.81
2023-03-29T02:40:12.589Z,71.34
2023-03-29T02:43:16.687Z,72.09
2023-03-29T02:46:21.060Z,72.07
2023-03-29T02:49:25.006Z,71.77
2023-03-29T02:52:34.245Z,71.66
2023-03-29T02:55:39.040Z,71.17
2023-03-29T02:58:42.002Z,71.00
2023-03-29T03:01:45.237Z,72.02
2023-03-29T03:04:48.531Z,71.63
2023-03-29T03:07:51.576Z,71.41
2023-03-29T03:10:54.459Z,72.59
2023-03-29T03:13:57.298Z,72.07
2023-03-29T03:17:03.844Z,72.10
2023-03-29T03:20:13.099Z,72.09
2023-03-29T03:23:18.833Z,71.72
2023-03-29T03:26:22.460Z,72.02
2023-03-29T03:29:26.134Z,72.12
2023-03-29T03:32:32.689Z,71.40
2023-03-29T03:35:38.683Z,71.55
2023-03-29T03:38:44.656Z,70.94
2023-03-29T03:41:47.831Z,72.02
2023-03-29T03:44:52.121Z,71.46
2023-03-29T03:47:55.295Z,71.59
2023-03-29T03:50:59.323Z,71.93
2023-03-29T03:54:05.032Z,72.27
2023-03-29T03:57:08.869Z,73.16
2023-03-29T04:00:19.625Z,72.87
2023-03-29T04:03:24.143Z,73.41
2023-03-29T04:06:30.537Z,72.96
2023-03-29T04:09:35.681Z,72.64
2023-03-29T04:12:40.041Z,73.76
2023-03-29T04:15:46.229Z,73.78
2023-03-29T04:18:50.073Z,73.82
2023-03-29T04:21:53.200Z,73.10
2023-03-29T04:24:56.271Z,73.32
2023-03-29T04:28:01.432Z,73.70
2023-03-29T04:31:04.942Z,73.50
2023-03-29T04:34:08.395Z,73.05
2023-03-29T04:37:11.113Z,72.50
2023-03-29T04:40:15.037Z,72.33
2023-03-29T04:43:18.872Z,72.42
2023-03-29T04:46:26.478Z,71.44
2023-03-29T04:49:31.188Z,71.16
2023-03-29T04:52:35.029Z,70.47
2023-03-29T04:55:38.177Z,68.03
2023-03-29T04:58:42.288Z,65.00
2023-03-29T05:01:45.788Z,62.60
2023-03-29T05:04:48.898Z,62.67
2023-03-29T05:07:54.963Z,62.00
2023-03-29T05:10:58.359Z,61.69
2023-03-29T05:14:03.384Z,63.18
2023-03-29T05:17:06.645Z,65.65
2023-03-29T05:20:10.321Z,66.72
2023-03-29T05:23:13.881Z,67.47
2023-03-29T05:26:22.349Z,68.14
2023-03-29T05:29:25.522Z,68.25
2023-03-29T05:32:29.029Z,68.89
2023-03-29T05:35:32.355Z,69.12
2023-03-29T05:38:35.931Z,68.13
2023-03-29T05:41:39.629Z,68.39
2023-03-29T05:44:48.592Z,66.93
2023-03-29T05:47:52.138Z,66.32
2023-03-29T05:50:56.447Z,65.77
2023-03-29T05:53:59.613Z,64.62
2023-03-29T05:57:02.379Z,65.16
2023-03-29T06:00:20.162Z,65.35
2023-03-29T06:03:28.612Z,65.20
2023-03-29T06:06:32.160Z,64.47
2023-03-29T06:09:35.218Z,64.24
2023-03-29T06:12:40.227Z,63.95
2023-03-29T06:15:45.161Z,63.67
2023-03-29T06:18:48.081Z,63.56
2023-03-29T06:21:53.774Z,63.06
2023-03-29T06:24:58.492Z,61.47
2023-03-29T06:28:02.697Z,60.97
2023-03-29T06:31:06.008Z,59.26
2023-03-29T06:34:13.206Z,58.70
2023-03-29T06:37:19.435Z,56.84
2023-03-29T06:40:24.951Z,55.93
2023-03-29T06:43:27.560Z,53.84
2023-03-29T06:46:30.480Z,53.67
2023-03-29T06:49:35.038Z,53.08
2023-03-29T06:52:39.927Z,52.85
2023-03-29T06:55:42.875Z,53.08
2023-03-29T06:58:47.226Z,51.37
2023-03-29T07:01:54.135Z,53.58
2023-03-29T07:04:57.284Z,52.82
2023-03-29T07:08:02.455Z,51.47
2023-03-29T07:11:06.179Z,52.66
2023-03-29T07:14:10.706Z,49.21
2023-03-29T07:17:13.741Z,50.24
2023-03-29T07:20:16.853Z,49.48
2023-03-29T07:23:20.176Z,49.05
2023-03-29T07:26:28.560Z,49.04
2023-03-29T07:29:33.767Z,49.14
2023-03-29T07:32:38.850Z,47.35
2023-03-29T07:35:43.872Z,47.50
2023-03-29T07:38:46.692Z,48.33
2023-03-29T07:41:50.726Z,46.66
2023-03-29T07:44:54.473Z,48.96
2023-03-29T07:47:59.556Z,47.08
2023-03-29T07:51:03.870Z,45.27
2023-03-29T07:54:08.171Z,43.60
2023-03-29T07:57:12.328Z,44.23
2023-03-29T08:00:16.529Z,42.54
2023-03-29T08:03:20.837Z,42.66
2023-03-29T08:06:26.698Z,42.07
2023-03-29T08:09:30.444Z,41.29
2023-03-29T08:12:33.110Z,38.74
2023-03-29T08:15:39.195Z,39.61
2023-03-29T08:18:43.546Z,38.85
2023-03-29T08:21:47.988Z,38.74
2023-03-29T08:24:51.377Z,39.27
2023-03-29T08:27:54.517Z,38.34
2023-03-29T08:30:57.997Z,38.68
2023-03-29T08:34:01.185Z,38.11
2023-03-29T08:37:05.460Z,37.40
2023-03-29T08:40:17.555Z,37.28
2023-03-29T08:43:28.685Z,35.17
2023-03-29T08:47:12.767Z,35.88
2023-03-29T08:50:18.352Z,32.50
2023-03-29T08:53:34.578Z,31.93
2023-03-29T08:56:40.631Z,30.23
2023-03-29T08:59:45.735Z,31.55
2023-03-29T09:02:53.957Z,30.30
2023-03-29T09:06:03.940Z,30.07
2023-03-29T09:09:15.244Z,30.00
2023-03-29T09:12:59.388Z,31.82
2023-03-29T09:16:25.014Z,30.54
2023-03-29T09:19:45.451Z,30.72
2023-03-29T09:23:28.517Z,29.07
2023-03-29T09:26:49.252Z,32.17
2023-03-29T09:30:14.563Z,32.04
2023-03-29T09:33:23.837Z,30.26
2023-03-29T09:36:48.162Z,30.60
2023-03-29T09:39:53.199Z,31.04
2023-03-29T09:42:58.554Z,31.71
2023-03-29T09:46:15.953Z,30.11
2023-03-29T09:49:24.915Z,29.49
2023-03-29T09:52:28.187Z,29.90
2023-03-29T09:55:34.072Z,29.20
2023-03-29T09:58:38.051Z,27.84
2023-03-29T10:01:45.628Z,28.47
2023-03-29T10:05:04.479Z,27.88
2023-03-29T10:08:27.309Z,27.56
2023-03-29T10:11:34.831Z,28.22
2023-03-29T10:14:42.612Z,27.08
2023-03-29T10:17:46.374Z,28.17
2023-03-29T10:20:49.236Z,28.08
2023-03-29T10:23:59.388Z,28.41
2023-03-29T10:27:06.898Z,27.79
2023-03-29T10:30:22.331Z,27.25
2023-03-29T10:33:30.066Z,27.29
2023-03-29T10:36:33.374Z,27.75
2023-03-29T10:39:36.652Z,28.68
2023-03-29T10:42:48.082Z,29.20
2023-03-29T10:45:53.843Z,30.51
2023-03-29T10:49:06.203Z,29.48
2023-03-29T10:52:09.541Z,29.10
2023-03-29T10:55:14.017Z,29.43
2023-03-29T10:58:30.167Z,27.92
2023-03-29T11:01:45.909Z,30.16
2023-03-29T11:05:06.127Z,29.96
2023-03-29T11:08:18.517Z,30.56
2023-03-29T11:11:36.449Z,29.35
2023-03-29T11:15:09.834Z,28.70
2023-03-29T11:18:12.316Z,27.87
2023-03-29T11:21:48.228Z,28.05
2023-03-29T11:25:10.244Z,29.32
2023-03-29T11:28:24.125Z,30.00
2023-03-29T11:31:48.497Z,29.58
2023-03-29T11:34:57.401Z,29.79
2023-03-29T11:38:11.091Z,31.20
2023-03-29T11:41:27.603Z,31.08
2023-03-29T11:44:31.611Z,31.50
2023-03-29T11:47:40.510Z,30.99
2023-03-29T11:50:51.994Z,32.29
2023-03-29T11:54:13.474Z,32.08
2023-03-29T11:57:29.166Z,32.24
2023-03-29T12:00:44.933Z,31.95
2023-03-29T12:03:55.852Z,32.17
2023-03-29T12:07:01.911Z,33.29
2023-03-29T12:10:31.540Z,32.66
2023-03-29T12:13:44.726Z,33.56
2023-03-29T12:16:53.384Z,34.02
2023-03-29T12:20:07.700Z,32.92
2023-03-29T12:23:16.729Z,32.91
2023-03-29T12:26:40.579Z,32.26
2023-03-29T12:30:01.698Z,31.99
2023-03-29T12:33:07.868Z,35.20
2023-03-29T12:36:57.420Z,34.16
2023-03-29T12:40:13.229Z,35.88
2023-03-29T12:43:32.245Z,36.25
2023-03-29T12:46:36.104Z,36.46
2023-03-29T12:49:39.412Z,36.87
2023-03-29T12:52:42.922Z,36.09
2023-03-29T12:55:53.994Z,35.71
2023-03-29T12:58:59.637Z,36.79
2023-03-29T13:02:14.082Z,36.92
2023-03-29T13:05:38.114Z,36.09
2023-03-29T13:08:43.470Z,37.67
2023-03-29T13:11:52.606Z,37.90
2023-03-29T13:15:02.467Z,38.68
2023-03-29T13:18:33.918Z,38.49
2023-03-29T13:21:39.716Z,38.84
2023-03-29T13:25:06.220Z,38.73
2023-03-29T13:28:24.425Z,39.36
2023-03-29T13:31:46.792Z,38.26
2023-03-29T13:34:57.846Z,39.25
2023-03-29T13:38:22.049Z,38.81
2023-03-29T13:41:40.121Z,39.59
2023-03-29T13:44:45.585Z,40.95
2023-03-29T13:47:58.741Z,41.11
2023-03-29T13:51:27.253Z,41.43
2023-03-29T13:54:39.770Z,40.63
2023-03-29T13:57:51.059Z,40.45
2023-03-29T14:01:17.143Z,40.09
2023-03-29T14:04:25.664Z,39.56
2023-03-29T14:07:30.518Z,40.21
2023-03-29T14:10:45.278Z,39.85
2023-03-29T14:13:47.909Z,40.53
2023-03-29T14:16:51.288Z,40.47
2023-03-29T14:19:58.076Z,41.83
2023-03-29T14:23:01.122Z,41.74
2023-03-29T14:26:14.411Z,41.74
2023-03-29T14:29:18.318Z,41.47
2023-03-29T14:32:30.587Z,40.89
2023-03-29T14:35:33.684Z,41.86
2023-03-29T14:38:37.750Z,42.34
2023-03-29T14:41:54.800Z,42.22
2023-03-29T14:45:09.362Z,41.80
2023-03-29T14:48:13.445Z,41.84
2023-03-29T14:51:16.313Z,40.84
2023-03-29T14:54:34.130Z,41.28
2023-03-29T14:57:37.890Z,41.58
2023-03-29T15:00:45.274Z,41.55
2023-03-29T15:04:04.588Z,41.63
2023-03-29T15:07:09.242Z,41.56
2023-03-29T15:10:19.281Z,41.29
2023-03-29T15:13:24.652Z,41.18
2023-03-29T15:16:30.399Z,41.69
2023-03-29T15:19:34.397Z,41.36
2023-03-29T15:22:38.608Z,41.50
2023-03-29T15:25:53.398Z,41.36
2023-03-29T15:29:13.447Z,41.34
2023-03-29T15:32:22.632Z,41.61
2023-03-29T15:35:27.222Z,42.00
2023-03-29T15:38:40.847Z,41.63
2023-03-29T15:41:51.878Z,41.37
2023-03-29T15:44:56.416Z,41.89
2023-03-29T15:48:02.073Z,42.44
2023-03-29T15:51:06.671Z,42.28
2023-03-29T15:54:09.905Z,42.77
2023-03-29T15:57:15.607Z,42.82
2023-03-29T16:00:21.125Z,42.91
2023-03-29T16:03:24.846Z,42.97
2023-03-29T16:06:27.784Z,43.36
2023-03-29T16:09:30.879Z,44.18
2023-03-29T16:12:36.004Z,43.98
2023-03-29T16:15:41.435Z,44.06
2023-03-29T16:18:46.984Z,43.82
2023-03-29T16:21:50.961Z,44.01
2023-03-29T16:24:53.973Z,44.15
2023-03-29T16:27:56.976Z,44.87
2023-03-29T16:31:00.121Z,44.37
2023-03-29T16:34:04.996Z,44.74
2023-03-29T16:37:07.669Z,45.11
2023-03-29T16:40:12.509Z,44.64
2023-03-29T16:43:16.391Z,44.44
2023-03-29T16:46:19.632Z,44.65
2023-03-29T16:49:22.492Z,44.94
2023-03-29T16:52:27.020Z,45.14
2023-03-29T16:55:29.979Z,45.85
2023-03-29T16:58:33.486Z,45.87
2023-03-29T17:01:36.831Z,46.33
2023-03-29T17:04:40.084Z,46.95
2023-03-29T17:07:43.376Z,47.29
2023-03-29T17:10:51.643Z,47.63
2023-03-29T17:13:55.268Z,48.04
2023-03-29T17:16:58.947Z,47.46
2023-03-29T17:20:01.966Z,47.89
2023-03-29T17:23:06.074Z,48.47
2023-03-29T17:26:09.259Z,49.24
2023-03-29T17:29:13.040Z,49.47
2023-03-29T17:32:16.358Z,50.78
2023-03-29T17:35:22.529Z,51.84
2023-03-29T17:38:26.770Z,52.63
2023-03-29T17:41:31.039Z,53.16
2023-03-29T17:44:34.349Z,54.29
2023-03-29T17:47:39.103Z,54.43
2023-03-29T17:50:43.388Z,54.67
2023-03-29T17:53:47.061Z,55.31
2023-03-29T17:56:50.704Z,55.82
2023-03-29T17:59:54.712Z,56.26
2023-03-29T18:02:58.207Z,56.26
2023-03-29T18:06:02.464Z,56.85
2023-03-29T18:09:05.717Z,57.41
2023-03-29T18:12:09.530Z,57.08
2023-03-29T18:15:12.739Z,57.44
2023-03-29T18:18:16.518Z,58.26
2023-03-29T18:21:21.115Z,59.60
2023-03-29T18:24:24.649Z,59.34
2023-03-29T18:27:29.701Z,58.76
2023-03-29T18:30:36.119Z,58.59
2023-03-29T18:33:40.089Z,59.60
2023-03-29T18:36:43.890Z,60.09
2023-03-29T18:39:48.720Z,59.42
2023-03-29T18:42:52.383Z,60.97
2023-03-29T18:45:55.153Z,59.55
2023-03-29T18:49:03.307Z,58.38
2023-03-29T18:52:06.490Z,59.10
2023-03-29T18:55:10.455Z,58.55
2023-03-29T18:58:15.495Z,58.45
2023-03-29T19:01:19.148Z,61.76
2023-03-29T19:04:22.335Z,59.06
2023-03-29T19:07:28.980Z,58.36
2023-03-29T19:10:38.506Z,60.47
2023-03-29T19:13:45.762Z,62.11
2023-03-29T19:16:48.436Z,59.73
2023-03-29T19:19:51.996Z,59.75
2023-03-29T19:22:58.324Z,61.16
2023-03-29T19:26:03.515Z,60.72
2023-03-29T19:29:06.846Z,61.74
2023-03-29T19:32:09.968Z,60.63
2023-03-29T19:35:13.323Z,60.73
2023-03-29T19:38:17.185Z,62.05
2023-03-29T19:41:20.279Z,59.21
2023-03-29T19:44:23.656Z,61.46
2023-03-29T19:47:28.216Z,60.74
2023-03-29T19:50:32.096Z,62.74
2023-03-29T19:53:38.440Z,63.29
2023-03-29T19:56:42.933Z,60.13
2023-03-29T19:59:46.439Z,63.68
2023-03-29T20:02:51.778Z,61.45
2023-03-29T20:05:56.580Z,61.62
2023-03-29T20:08:59.193Z,62.72
2023-03-29T20:12:02.085Z,63.04
2023-03-29T20:15:05.120Z,63.44
2023-03-29T20:18:08.041Z,63.95
2023-03-29T20:21:16.973Z,62.52
2023-03-29T20:24:20.224Z,63.11
2023-03-29T20:27:23.601Z,63.61
2023-03-29T20:30:26.936Z,64.03
2023-03-29T20:33:29.710Z,63.29
2023-03-29T20:36:35.819Z,63.47
2023-03-29T20:39:38.507Z,63.77
2023-03-29T20:42:41.729Z,63.65
2023-03-29T20:45:53.898Z,63.81
2023-03-29T20:48:57.381Z,63.80
2023-03-29T20:52:03.407Z,63.46
2023-03-29T20:55:06.693Z,63.08
2023-03-29T20:58:09.601Z,62.71
2023-03-29T21:01:14.347Z,62.70
2023-03-29T21:04:18.191Z,62.72
2023-03-29T21:07:21.793Z,62.24
2023-03-29T21:10:26.357Z,62.65
2023-03-29T21:13:35.747Z,62.46
2023-03-29T21:16:42.344Z,62.19
2023-03-29T21:19:45.580Z,62.28
2023-03-29T21:22:48.126Z,62.47
2023-03-29T21:25:51.088Z,62.81
2023-03-29T21:28:53.802Z,63.17
2023-03-29T21:31:56.820Z,63.10
2023-03-29T21:34:59.514Z,63.08
2023-03-29T21:38:02.368Z,62.49
2023-03-29T21:41:05.521Z,63.32
2023-03-29T21:44:09.113Z,63.48
2023-03-29T21:47:11.693Z,63.87
2023-03-29T21:50:15.084Z,64.75
2023-03-29T21:53:18.422Z,65.45
2023-03-29T21:56:22.487Z,66.33
2023-03-29T21:59:25.316Z,66.70
2023-03-29T22:02:28.289Z,67.21
2023-03-29T22:05:31.223Z,67.59
2023-03-29T22:08:34.454Z,67.58
2023-03-29T22:11:39.964Z,68.06
2023-03-29T22:14:42.454Z,68.05
2023-03-29T22:17:45.612Z,68.11
2023-03-29T22:20:48.451Z,68.11
2023-03-29T22:23:54.096Z,68.62
2023-03-29T22:26:56.621Z,69.02
2023-03-29T22:29:59.546Z,68.97
2023-03-29T22:33:02.194Z,69.43
2023-03-29T22:36:15.652Z,69.50
2023-03-29T22:39:18.508Z,69.90
2023-03-29T22:42:21.774Z,70.03
2023-03-29T22:45:24.336Z,70.80
2023-03-29T22:48:27.177Z,71.02
2023-03-29T22:51:30.013Z,71.36
2023-03-29T22:54:32.960Z,71.16
2023-03-29T22:57:35.532Z,71.24
2023-03-29T23:00:38.476Z,71.43
2023-03-29T23:03:41.721Z,71.92
2023-03-29T23:06:44.916Z,72.61
2023-03-29T23:09:47.495Z,72.84
2023-03-29T23:12:50.559Z,73.04
2023-03-29T23:15:55.187Z,73.75
2023-03-29T23:18:58.431Z,73.55
2023-03-29T23:22:01.262Z,73.62
2023-03-29T23:25:04.534Z,73.33
2023-03-29T23:28:07.041Z,73.71
2023-03-29T23:31:12.995Z,73.31
2023-03-29T23:34:15.916Z,73.94
2023-03-29T23:37:18.796Z,73.99
2023-03-29T23:40:21.974Z,73.75
2023-03-29T23:43:28.411Z,74.28
2023-03-29T23:46:32.447Z,74.00
2023-03-29T23:49:36.250Z,74.06
2023-03-29T23:52:40.650Z,73.53
2023-03-29T23:55:43.551Z,73.78
2023-03-29T23:58:46.180Z,73.52
